createdAt,value
2023-07-14T00:00:44.785Z,16.3
2023-07-14T00:06:15.356Z,16
2023-07-14T00:12:10.448Z,16.3
2023-07-14T00:17:22.476Z,16.2
2023-07-14T00:23:22.120Z,16.2
2023-07-14T00:28:28.803Z,15.9
2023-07-14T00:34:25.602Z,15.9
2023-07-14T00:39:59.365Z,15.5
2023-07-14T00:45:22.498Z,15.4
2023-07-14T00:50:54.143Z,15.5
2023-07-14T00:56:29.591Z,15.5
2023-07-14T01:02:10.079Z,14.7
2023-07-14T01:07:45.516Z,14.5
2023-07-14T01:13:03.055Z,14.6
2023-07-14T01:18:45.455Z,14.7
2023-07-14T01:24:30.947Z,14.8
2023-07-14T01:30:05.110Z,14.9
2023-07-14T01:35:35.609Z,14.9
2023-07-14T01:41:10.266Z,15.1
2023-07-14T01:46:32.803Z,15.1
2023-07-14T01:52:02.167Z,15.1
2023-07-14T01:57:47.813Z,15
2023-07-14T02:03:22.588Z,15
2023-07-14T02:08:45.878Z,15.3
2023-07-14T02:14:35.739Z,15.5
2023-07-14T02:20:09.344Z,15.5
2023-07-14T02:25:37.312Z,15
2023-07-14T02:31:07.825Z,14.9
2023-07-14T02:36:40.149Z,15
2023-07-14T02:42:12.023Z,15.2
2023-07-14T02:47:56.249Z,14.9
2023-07-14T02:53:15.971Z,14.8
2023-07-14T02:58:37.250Z,14.6
2023-07-14T03:04:16.848Z,14.5
2023-07-14T03:09:45.594Z,14.3
2023-07-14T03:15:35.552Z,14.4
2023-07-14T03:20:52.308Z,14.5
2023-07-14T03:26:52.058Z,14.5
2023-07-14T03:32:12.028Z,14.6
2023-07-14T03:37:45.560Z,14.5
2023-07-14T03:43:12.468Z,14.3
2023-07-14T03:54:39.534Z,14.4
2023-07-14T04:00:17.568Z,14.2
2023-07-14T04:05:46.911Z,14.1
2023-07-14T04:11:22.151Z,14.1
2023-07-14T04:16:47.761Z,14
2023-07-14T04:22:08.199Z,14.1
2023-07-14T04:28:06.522Z,14.2
2023-07-14T04:33:36.762Z,14.5
2023-07-14T04:38:47.380Z,14.5
2023-07-14T04:44:23.540Z,14.4
2023-07-14T04:50:06.921Z,14.5
2023-07-14T04:55:51.908Z,14.5
2023-07-14T05:01:29.566Z,15
2023-07-14T05:06:58.818Z,15.1
2023-07-14T05:12:16.595Z,15.2
2023-07-14T05:17:59.279Z,15.4
2023-07-14T05:34:34.119Z,16.5
2023-07-14T05:40:01.857Z,15.9
2023-07-14T05:45:45.669Z,16.5
2023-07-14T05:51:21.122Z,16.5
2023-07-14T05:56:47.858Z,16.8
2023-07-14T06:02:33.549Z,17.2
2023-07-14T06:07:58.512Z,16.8
2023-07-14T06:13:41.192Z,18.1
2023-07-14T06:19:24.965Z,17.6
2023-07-14T06:24:55.249Z,17.5
2023-07-14T06:30:25.041Z,18.1
2023-07-14T06:36:08.130Z,18.3
2023-07-14T06:41:20.234Z,19.1
2023-07-14T06:47:13.931Z,19.5
2023-07-14T06:52:32.653Z,19
2023-07-14T07:03:45.188Z,19.7
2023-07-14T07:09:31.111Z,19.9
2023-07-14T07:15:01.183Z,20.2
2023-07-14T07:20:31.994Z,20
2023-07-14T07:26:05.639Z,20.1
2023-07-14T07:31:53.721Z,20.3
2023-07-14T07:37:39.925Z,20.7
2023-07-14T07:43:11.350Z,20.6
2023-07-14T07:48:51.520Z,21.1
2023-07-14T07:54:27.511Z,21.3
2023-07-14T07:59:44.561Z,20.9
2023-07-14T08:05:39.727Z,21.8
2023-07-14T08:11:01.697Z,21.7
2023-07-14T08:16:36.056Z,21.2
2023-07-14T08:22:28.904Z,22.3
2023-07-14T08:27:58.974Z,21.7
2023-07-14T08:33:22.006Z,22.1
2023-07-14T08:44:33.161Z,22.5
2023-07-14T08:50:30.969Z,23.5
2023-07-14T08:56:03.518Z,23
2023-07-14T09:01:47.997Z,23.3
2023-07-14T09:07:13.259Z,24.4
2023-07-14T09:12:40.598Z,23.8
2023-07-14T09:29:34.047Z,24.1
2023-07-14T09:35:35.926Z,24.6
2023-07-14T09:40:49.553Z,23.5
2023-07-14T09:46:32.923Z,24.9
2023-07-14T09:52:15.878Z,23.9
2023-07-14T09:58:11.134Z,24.6
2023-07-14T10:03:38.388Z,25.8
2023-07-14T10:09:06.215Z,24.6
2023-07-14T10:14:39.510Z,24.6
2023-07-14T10:20:25.413Z,25
2023-07-14T10:26:04.296Z,24.5
2023-07-14T10:31:36.661Z,25.4
2023-07-14T10:37:27.946Z,25
2023-07-14T10:42:48.132Z,25.1
2023-07-14T10:48:26.614Z,24.5
2023-07-14T10:54:26.644Z,25.9
2023-07-14T10:59:56.517Z,26
2023-07-14T11:05:30.577Z,27
2023-07-14T11:11:05.580Z,26.1
2023-07-14T11:16:53.853Z,25.1
2023-07-14T11:22:21.486Z,26.3
2023-07-14T11:27:56.243Z,26.6
2023-07-14T11:39:29.705Z,27
2023-07-14T11:44:48.251Z,27.7
2023-07-14T11:50:38.914Z,28
2023-07-14T11:56:28.010Z,27.8
2023-07-14T12:01:58.164Z,26.7
2023-07-14T12:07:33.857Z,27.2
2023-07-14T12:13:12.118Z,27.2
2023-07-14T12:18:55.150Z,26.8
2023-07-14T12:24:24.842Z,27
2023-07-14T12:30:12.404Z,27.4
2023-07-14T12:35:57.409Z,26.7
2023-07-14T12:41:34.508Z,27.8
2023-07-14T12:46:56.031Z,27.7
2023-07-14T12:52:41.237Z,27.5
2023-07-14T12:58:15.321Z,27.8
2023-07-14T13:04:00.473Z,28.5
2023-07-14T13:09:26.279Z,28.5
2023-07-14T13:15:32.529Z,28.7
2023-07-14T13:21:02.622Z,28.8
2023-07-14T13:26:33.288Z,28.3
2023-07-14T13:32:12.458Z,27.7
2023-07-14T13:37:49.409Z,27.5
2023-07-14T13:55:05.935Z,29
2023-07-14T14:00:46.484Z,28.7
2023-07-14T14:06:15.537Z,28.8
2023-07-14T14:11:42.930Z,29.2
2023-07-14T14:17:26.156Z,29.8
2023-07-14T14:23:19.049Z,29.9
2023-07-14T14:28:52.688Z,30.2
2023-07-14T14:34:33.986Z,29.2
2023-07-14T14:39:57.379Z,29.4
2023-07-14T14:46:00.739Z,29
2023-07-14T14:51:31.238Z,29.3
2023-07-14T14:57:05.366Z,29.5
2023-07-14T15:03:04.669Z,30.3
2023-07-14T15:13:58.268Z,29.1
2023-07-14T15:19:37.613Z,29.7
2023-07-14T15:25:38.390Z,30.1
2023-07-14T15:31:06.477Z,30.6
2023-07-14T15:36:39.398Z,29.5
2023-07-14T15:42:26.479Z,30.4
2023-07-14T15:47:55.394Z,30.8
2023-07-14T15:59:26.201Z,31.2
2023-07-14T16:05:09.109Z,31
2023-07-14T16:10:46.868Z,30
2023-07-14T16:16:26.970Z,30.6
2023-07-14T16:22:12.247Z,30.1
2023-07-14T16:27:47.089Z,30.2
2023-07-14T16:33:34.038Z,30.7
2023-07-14T16:39:11.380Z,30.2
2023-07-14T16:44:58.601Z,30.4
2023-07-14T16:50:14.683Z,30.8
2023-07-14T16:56:18.227Z,30
2023-07-14T17:01:47.737Z,29.9
2023-07-14T17:07:11.382Z,30.4
2023-07-14T17:13:24.765Z,30.4
2023-07-14T17:29:50.505Z,30.8
2023-07-14T17:35:49.224Z,30.3
2023-07-14T17:41:05.580Z,30.2
2023-07-14T17:46:59.136Z,30.1
2023-07-14T17:52:31.374Z,30.1
2023-07-14T17:58:10.574Z,29.7
2023-07-14T18:09:22.809Z,29.7
2023-07-14T18:15:12.590Z,29.3
2023-07-14T18:21:03.966Z,29.2
2023-07-14T18:26:20.502Z,29.2
2023-07-14T18:31:57.327Z,28.9
2023-07-14T18:37:33.390Z,28.6
2023-07-14T18:43:31.038Z,28.6
2023-07-14T18:48:49.163Z,27.7
2023-07-14T18:54:22.502Z,26.6
2023-07-14T19:00:13.795Z,26.3
2023-07-14T19:05:49.432Z,25.6
2023-07-14T19:11:31.190Z,25.5
2023-07-14T19:17:05.324Z,25
2023-07-14T19:22:45.487Z,24.8
2023-07-14T19:28:12.981Z,24.2
2023-07-14T19:33:34.130Z,24.1
2023-07-14T19:39:21.678Z,24.1
2023-07-14T19:44:53.426Z,24.3
2023-07-14T19:50:19.730Z,24.4
2023-07-14T19:56:05.326Z,24.6
2023-07-14T20:01:44.281Z,24.5
2023-07-14T20:07:05.918Z,24.5
2023-07-14T20:12:41.651Z,24.3
2023-07-14T20:18:29.000Z,23.5
2023-07-14T20:29:32.718Z,24.1
2023-07-14T20:34:56.393Z,23.9
2023-07-14T20:40:42.311Z,22.9
2023-07-14T20:46:25.536Z,22.9
2023-07-14T20:52:08.014Z,22.3
2023-07-14T20:57:24.811Z,22.3
2023-07-14T21:03:11.755Z,22.6
2023-07-14T21:08:25.800Z,21.9
2023-07-14T21:14:27.870Z,22.5
2023-07-14T21:20:01.297Z,22.6
2023-07-14T21:25:13.938Z,22.4
2023-07-14T21:30:48.347Z,22.4
2023-07-14T21:36:33.120Z,21.8
2023-07-14T21:42:09.418Z,21.3
2023-07-14T21:47:44.674Z,21.2
2023-07-14T21:53:12.140Z,21
2023-07-14T21:58:39.666Z,20.8
2023-07-14T22:04:15.264Z,20.5
2023-07-14T22:10:03.220Z,20.4
2023-07-14T22:15:24.128Z,20.4
2023-07-14T22:20:58.932Z,20.1
2023-07-14T22:26:56.845Z,20.1
2023-07-14T22:32:27.720Z,19.9
2023-07-14T22:37:58.376Z,19.8
2023-07-14T22:43:23.668Z,19.6
2023-07-14T22:49:00.582Z,19.6
2023-07-14T23:00:12.715Z,19.6
2023-07-14T23:05:52.545Z,19.2
2023-07-14T23:11:12.179Z,18.9
2023-07-14T23:16:44.292Z,18.6
2023-07-14T23:22:22.141Z,18.7
2023-07-14T23:27:48.065Z,18.4
2023-07-14T23:39:01.660Z,18.7
2023-07-14T23:44:44.795Z,19
2023-07-14T23:50:05.669Z,19
2023-07-14T23:56:03.303Z,19.2
